sensor_id;sensor_type;location;lat;lon;timestamp;P1;durP1;ratioP1;P2;durP2;ratioP2
21416;SDS011;10869;52.238;10.716;2022-12-18T04:04:18;15.40;;;3.53;;
21416;SDS011;10869;52.238;10.716;2022-12-18T04:06:45;7.43;;;3.03;;
21416;SDS011;10869;52.238;10.716;2022-12-18T04:09:13;6.60;;;3.10;;
21416;SDS011;10869;52.238;10.716;2022-12-18T04:11:42;6.93;;;3.70;;
21416;SDS011;10869;52.238;10.716;2022-12-18T04:14:09;8.57;;;3.43;;
21416;SDS011;10869;52.238;10.716;2022-12-18T04:16:36;10.60;;;3.47;;
21416;SDS011;10869;52.238;10.716;2022-12-18T04:19:03;8.30;;;3.63;;
21416;SDS011;10869;52.238;10.716;2022-12-18T04:21:30;9.30;;;3.77;;
21416;SDS011;10869;52.238;10.716;2022-12-18T04:23:59;13.23;;;3.50;;
21416;SDS011;10869;52.238;10.716;2022-12-18T04:26:25;16.87;;;3.83;;
21416;SDS011;10869;52.238;10.716;2022-12-18T04:28:50;7.67;;;3.40;;
21416;SDS011;10869;52.238;10.716;2022-12-18T04:31:16;12.30;;;3.40;;
21416;SDS011;10869;52.238;10.716;2022-12-18T04:33:42;9.90;;;2.90;;
21416;SDS011;10869;52.238;10.716;2022-12-18T04:36:08;8.60;;;3.07;;
21416;SDS011;10869;52.238;10.716;2022-12-18T04:38:33;10.60;;;3.20;;
21416;SDS011;10869;52.238;10.716;2022-12-18T04:40:59;7.67;;;3.30;;
21416;SDS011;10869;52.238;10.716;2022-12-18T04:43:25;10.30;;;3.50;;
21416;SDS011;10869;52.238;10.716;2022-12-18T04:45:51;6.13;;;2.93;;
21416;SDS011;10869;52.238;10.716;2022-12-18T04:48:16;7.43;;;2.67;;
21416;SDS011;10869;52.238;10.716;2022-12-18T04:50:42;9.27;;;3.73;;
21416;SDS011;10869;52.238;10.716;2022-12-18T04:53:11;9.27;;;3.17;;
21416;SDS011;10869;52.238;10.716;2022-12-18T04:55:37;9.30;;;3.07;;
21416;SDS011;10869;52.238;10.716;2022-12-18T04:58:02;8.30;;;2.80;;
21416;SDS011;10869;52.238;10.716;2022-12-18T05:00:28;9.00;;;3.00;;
21416;SDS011;10869;52.238;10.716;2022-12-18T05:02:54;8.33;;;3.30;;
21416;SDS011;10869;52.238;10.716;2022-12-18T05:05:19;8.83;;;3.40;;
21416;SDS011;10869;52.238;10.716;2022-12-18T05:07:45;7.73;;;2.67;;
21416;SDS011;10869;52.238;10.716;2022-12-18T05:10:11;12.40;;;3.83;;
21416;SDS011;10869;52.238;10.716;2022-12-18T05:12:36;7.03;;;2.60;;
21416;SDS011;10869;52.238;10.716;2022-12-18T05:15:22;8.40;;;2.83;;
21416;SDS011;10869;52.238;10.716;2022-12-18T05:17:48;6.67;;;2.70;;
21416;SDS011;10869;52.238;10.716;2022-12-18T05:20:14;12.90;;;3.20;;
21416;SDS011;10869;52.238;10.716;2022-12-18T05:22:40;6.97;;;1.83;;
21416;SDS011;10869;52.238;10.716;2022-12-18T05:25:06;4.10;;;1.70;;
21416;SDS011;10869;52.238;10.716;2022-12-18T05:27:32;3.80;;;1.80;;
21416;SDS011;10869;52.238;10.716;2022-12-18T05:29:57;5.97;;;2.20;;
21416;SDS011;10869;52.238;10.716;2022-12-18T05:32:23;8.80;;;2.03;;
21416;SDS011;10869;52.238;10.716;2022-12-18T05:34:49;7.33;;;1.60;;
21416;SDS011;10869;52.238;10.716;2022-12-18T05:37:14;8.23;;;2.10;;
21416;SDS011;10869;52.238;10.716;2022-12-18T05:39:40;8.50;;;2.10;;
21416;SDS011;10869;52.238;10.716;2022-12-18T05:42:07;5.07;;;2.10;;
21416;SDS011;10869;52.238;10.716;2022-12-18T05:44:33;7.80;;;1.90;;
21416;SDS011;10869;52.238;10.716;2022-12-18T05:46:59;5.60;;;1.63;;
21416;SDS011;10869;52.238;10.716;2022-12-18T05:49:24;9.60;;;2.17;;
21416;SDS011;10869;52.238;10.716;2022-12-18T05:51:50;6.10;;;2.00;;
21416;SDS011;10869;52.238;10.716;2022-12-18T05:54:16;6.70;;;1.87;;
21416;SDS011;10869;52.238;10.716;2022-12-18T05:56:41;7.30;;;2.47;;
21416;SDS011;10869;52.238;10.716;2022-12-18T05:59:07;5.27;;;2.17;;
21416;SDS011;10869;52.238;10.716;2022-12-18T06:01:33;4.20;;;1.87;;
21416;SDS011;10869;52.238;10.716;2022-12-18T06:03:59;5.70;;;2.03;;
21416;SDS011;10869;52.238;10.716;2022-12-18T06:06:26;6.37;;;2.23;;
21416;SDS011;10869;52.238;10.716;2022-12-18T06:08:53;4.10;;;1.90;;
21416;SDS011;10869;52.238;10.716;2022-12-18T06:11:20;7.23;;;3.40;;
21416;SDS011;10869;52.238;10.716;2022-12-18T06:13:51;38.87;;;17.10;;
21416;SDS011;10869;52.238;10.716;2022-12-18T06:16:18;21.83;;;9.57;;
21416;SDS011;10869;52.238;10.716;2022-12-18T06:18:43;24.97;;;13.37;;
21416;SDS011;10869;52.238;10.716;2022-12-18T06:21:09;21.93;;;11.07;;
21416;SDS011;10869;52.238;10.716;2022-12-18T06:23:35;11.07;;;4.07;;
21416;SDS011;10869;52.238;10.716;2022-12-18T06:26:08;7.33;;;3.13;;
21416;SDS011;10869;52.238;10.716;2022-12-18T06:28:36;5.63;;;2.60;;
21416;SDS011;10869;52.238;10.716;2022-12-18T06:31:02;6.10;;;2.53;;
21416;SDS011;10869;52.238;10.716;2022-12-18T06:33:29;5.70;;;3.00;;
21416;SDS011;10869;52.238;10.716;2022-12-18T06:35:59;8.87;;;3.40;;
21416;SDS011;10869;52.238;10.716;2022-12-18T06:38:36;10.03;;;3.60;;
21416;SDS011;10869;52.238;10.716;2022-12-18T06:41:06;8.97;;;4.77;;
21416;SDS011;10869;52.238;10.716;2022-12-18T06:43:36;11.00;;;3.83;;
21416;SDS011;10869;52.238;10.716;2022-12-18T06:46:02;9.00;;;4.13;;
21416;SDS011;10869;52.238;10.716;2022-12-18T06:48:29;8.60;;;4.13;;
21416;SDS011;10869;52.238;10.716;2022-12-18T06:50:55;7.67;;;4.33;;
21416;SDS011;10869;52.238;10.716;2022-12-18T06:53:21;7.87;;;3.80;;
21416;SDS011;10869;52.238;10.716;2022-12-18T06:55:46;8.00;;;3.63;;
21416;SDS011;10869;52.238;10.716;2022-12-18T06:58:12;9.07;;;3.60;;
21416;SDS011;10869;52.238;10.716;2022-12-18T07:00:38;7.97;;;3.20;;
21416;SDS011;10869;52.238;10.716;2022-12-18T07:03:04;8.20;;;2.53;;
21416;SDS011;10869;52.238;10.716;2022-12-18T07:05:29;10.93;;;3.37;;
21416;SDS011;10869;52.238;10.716;2022-12-18T07:07:55;6.90;;;2.70;;
21416;SDS011;10869;52.238;10.716;2022-12-18T07:10:21;5.20;;;2.10;;
21416;SDS011;10869;52.238;10.716;2022-12-18T07:12:47;9.47;;;3.00;;
21416;SDS011;10869;52.238;10.716;2022-12-18T07:15:12;6.57;;;2.73;;
21416;SDS011;10869;52.238;10.716;2022-12-18T07:17:38;5.83;;;2.50;;
21416;SDS011;10869;52.238;10.716;2022-12-18T07:20:04;7.00;;;2.60;;
21416;SDS011;10869;52.238;10.716;2022-12-18T07:22:30;4.93;;;2.50;;
21416;SDS011;10869;52.238;10.716;2022-12-18T07:24:57;6.70;;;2.60;;
21416;SDS011;10869;52.238;10.716;2022-12-18T07:27:26;5.43;;;2.37;;
21416;SDS011;10869;52.238;10.716;2022-12-18T07:29:52;8.27;;;2.73;;
21416;SDS011;10869;52.238;10.716;2022-12-18T07:32:18;5.83;;;2.43;;
21416;SDS011;10869;52.238;10.716;2022-12-18T07:34:44;6.40;;;2.10;;
21416;SDS011;10869;52.238;10.716;2022-12-18T07:37:09;9.20;;;2.50;;
21416;SDS011;10869;52.238;10.716;2022-12-18T07:39:35;9.53;;;3.10;;
21416;SDS011;10869;52.238;10.716;2022-12-18T07:42:01;7.27;;;2.40;;
21416;SDS011;10869;52.238;10.716;2022-12-18T07:44:45;11.10;;;2.40;;
21416;SDS011;10869;52.238;10.716;2022-12-18T07:47:11;5.97;;;2.27;;
21416;SDS011;10869;52.238;10.716;2022-12-18T07:49:36;3.73;;;1.70;;
21416;SDS011;10869;52.238;10.716;2022-12-18T07:52:02;7.57;;;2.50;;
21416;SDS011;10869;52.238;10.716;2022-12-18T07:54:28;5.73;;;2.17;;
21416;SDS011;10869;52.238;10.716;2022-12-18T07:56:54;5.97;;;2.70;;
21416;SDS011;10869;52.238;10.716;2022-12-18T07:59:23;8.97;;;3.40;;
21416;SDS011;10869;52.238;10.716;2022-12-18T08:05:10;9.17;;;3.07;;
21416;SDS011;10869;52.238;10.716;2022-12-18T08:10:58;10.70;;;3.17;;
21416;SDS011;10869;52.238;10.716;2022-12-18T08:13:25;9.70;;;3.40;;
21416;SDS011;10869;52.238;10.716;2022-12-18T08:21:50;17.93;;;8.13;;
21416;SDS011;10869;52.238;10.716;2022-12-18T08:24:16;15.47;;;7.90;;
21416;SDS011;10869;52.238;10.716;2022-12-18T08:26:42;16.47;;;7.77;;
21416;SDS011;10869;52.238;10.716;2022-12-18T08:29:08;14.27;;;6.53;;
21416;SDS011;10869;52.238;10.716;2022-12-18T08:31:34;16.43;;;6.83;;
21416;SDS011;10869;52.238;10.716;2022-12-18T08:34:03;10.03;;;5.27;;
21416;SDS011;10869;52.238;10.716;2022-12-18T08:36:29;9.57;;;4.77;;
21416;SDS011;10869;52.238;10.716;2022-12-18T08:42:16;6.00;;;2.67;;
21416;SDS011;10869;52.238;10.716;2022-12-18T08:45:00;7.80;;;2.73;;
21416;SDS011;10869;52.238;10.716;2022-12-18T08:47:27;8.10;;;3.03;;
21416;SDS011;10869;52.238;10.716;2022-12-18T08:49:53;18.97;;;8.03;;
21416;SDS011;10869;52.238;10.716;2022-12-18T08:52:19;30.37;;;14.47;;
21416;SDS011;10869;52.238;10.716;2022-12-18T08:54:44;30.77;;;13.83;;
21416;SDS011;10869;52.238;10.716;2022-12-18T08:57:10;15.40;;;7.63;;
21416;SDS011;10869;52.238;10.716;2022-12-18T08:59:36;9.93;;;3.53;;
21416;SDS011;10869;52.238;10.716;2022-12-18T09:02:02;6.40;;;3.20;;
21416;SDS011;10869;52.238;10.716;2022-12-18T09:10:54;5.63;;;2.30;;
21416;SDS011;10869;52.238;10.716;2022-12-18T09:13:20;6.27;;;2.40;;
21416;SDS011;10869;52.238;10.716;2022-12-18T09:19:09;7.03;;;2.40;;
21416;SDS011;10869;52.238;10.716;2022-12-18T09:21:36;7.23;;;2.10;;
21416;SDS011;10869;52.238;10.716;2022-12-18T09:24:03;6.47;;;2.57;;
21416;SDS011;10869;52.238;10.716;2022-12-18T09:29:52;11.43;;;4.03;;
21416;SDS011;10869;52.238;10.716;2022-12-18T09:32:17;10.23;;;3.70;;
21416;SDS011;10869;52.238;10.716;2022-12-18T09:34:43;9.53;;;3.40;;
21416;SDS011;10869;52.238;10.716;2022-12-18T09:40:35;8.10;;;2.50;;
21416;SDS011;10869;52.238;10.716;2022-12-18T09:43:20;10.57;;;2.73;;
21416;SDS011;10869;52.238;10.716;2022-12-18T09:46:11;6.00;;;2.20;;
21416;SDS011;10869;52.238;10.716;2022-12-18T09:48:47;14.00;;;6.33;;
21416;SDS011;10869;52.238;10.716;2022-12-18T09:51:24;12.93;;;5.97;;
21416;SDS011;10869;52.238;10.716;2022-12-18T09:54:05;13.93;;;5.30;;
21416;SDS011;10869;52.238;10.716;2022-12-18T09:56:38;20.33;;;8.97;;
21416;SDS011;10869;52.238;10.716;2022-12-18T09:59:09;8.27;;;2.50;;
21416;SDS011;10869;52.238;10.716;2022-12-18T10:01:50;7.43;;;2.53;;
21416;SDS011;10869;52.238;10.716;2022-12-18T10:08:16;6.33;;;1.60;;
21416;SDS011;10869;52.238;10.716;2022-12-18T10:16:47;13.43;;;7.30;;
21416;SDS011;10869;52.238;10.716;2022-12-18T10:23:00;5.00;;;2.20;;
21416;SDS011;10869;52.238;10.716;2022-12-18T10:28:22;8.13;;;3.17;;
21416;SDS011;10869;52.238;10.716;2022-12-18T10:30:49;6.97;;;1.77;;
21416;SDS011;10869;52.238;10.716;2022-12-18T10:33:19;27.53;;;14.57;;
21416;SDS011;10869;52.238;10.716;2022-12-18T10:35:48;11.63;;;4.43;;
21416;SDS011;10869;52.238;10.716;2022-12-18T10:43:13;20.43;;;10.87;;
21416;SDS011;10869;52.238;10.716;2022-12-18T10:45:41;22.40;;;13.50;;
21416;SDS011;10869;52.238;10.716;2022-12-18T10:48:18;27.43;;;16.93;;
21416;SDS011;10869;52.238;10.716;2022-12-18T10:50:49;30.27;;;18.07;;
21416;SDS011;10869;52.238;10.716;2022-12-18T10:56:38;30.10;;;18.93;;
21416;SDS011;10869;52.238;10.716;2022-12-18T11:02:34;26.60;;;16.57;;
21416;SDS011;10869;52.238;10.716;2022-12-18T11:08:23;30.10;;;17.70;;
21416;SDS011;10869;52.238;10.716;2022-12-18T11:10:49;35.37;;;21.07;;
21416;SDS011;10869;52.238;10.716;2022-12-18T11:13:21;34.13;;;19.20;;
21416;SDS011;10869;52.238;10.716;2022-12-18T11:22:01;33.33;;;20.07;;
21416;SDS011;10869;52.238;10.716;2022-12-18T11:24:49;24.53;;;15.07;;
21416;SDS011;10869;52.238;10.716;2022-12-18T11:30:43;19.83;;;11.30;;
21416;SDS011;10869;52.238;10.716;2022-12-18T11:33:10;9.93;;;2.83;;
21416;SDS011;10869;52.238;10.716;2022-12-18T11:38:26;12.47;;;6.47;;
21416;SDS011;10869;52.238;10.716;2022-12-18T11:49:45;7.60;;;2.10;;
21416;SDS011;10869;52.238;10.716;2022-12-18T11:52:24;15.63;;;8.97;;
21416;SDS011;10869;52.238;10.716;2022-12-18T11:54:56;5.33;;;2.40;;
21416;SDS011;10869;52.238;10.716;2022-12-18T12:00:58;8.00;;;3.67;;
21416;SDS011;10869;52.238;10.716;2022-12-18T12:08:59;17.07;;;10.87;;
21416;SDS011;10869;52.238;10.716;2022-12-18T12:19:39;6.17;;;2.10;;
21416;SDS011;10869;52.238;10.716;2022-12-18T12:34:51;4.50;;;1.83;;
21416;SDS011;10869;52.238;10.716;2022-12-18T12:40:19;5.97;;;1.63;;
21416;SDS011;10869;52.238;10.716;2022-12-18T12:42:52;3.40;;;1.60;;
21416;SDS011;10869;52.238;10.716;2022-12-18T12:45:42;3.97;;;1.73;;
21416;SDS011;10869;52.238;10.716;2022-12-18T12:48:54;3.77;;;1.43;;
21416;SDS011;10869;52.238;10.716;2022-12-18T12:54:25;5.10;;;1.63;;
21416;SDS011;10869;52.238;10.716;2022-12-18T13:08:57;7.73;;;2.03;;
21416;SDS011;10869;52.238;10.716;2022-12-18T13:14:47;10.07;;;4.30;;
21416;SDS011;10869;52.238;10.716;2022-12-18T13:23:45;9.67;;;3.67;;
21416;SDS011;10869;52.238;10.716;2022-12-18T13:29:40;8.27;;;4.17;;
21416;SDS011;10869;52.238;10.716;2022-12-18T13:53:44;4.97;;;1.57;;
21416;SDS011;10869;52.238;10.716;2022-12-18T13:56:17;4.20;;;1.60;;
21416;SDS011;10869;52.238;10.716;2022-12-18T14:01:48;3.80;;;1.80;;
21416;SDS011;10869;52.238;10.716;2022-12-18T14:04:38;8.90;;;1.60;;
21416;SDS011;10869;52.238;10.716;2022-12-18T14:07:05;5.20;;;1.73;;
21416;SDS011;10869;52.238;10.716;2022-12-18T14:09:51;17.27;;;8.67;;
21416;SDS011;10869;52.238;10.716;2022-12-18T14:12:30;21.53;;;12.50;;
21416;SDS011;10869;52.238;10.716;2022-12-18T14:15:33;27.83;;;14.93;;
21416;SDS011;10869;52.238;10.716;2022-12-18T14:20:57;16.00;;;8.30;;
21416;SDS011;10869;52.238;10.716;2022-12-18T14:23:32;22.00;;;12.23;;
21416;SDS011;10869;52.238;10.716;2022-12-18T14:34:33;7.37;;;2.43;;
21416;SDS011;10869;52.238;10.716;2022-12-18T14:36:58;16.47;;;8.20;;
21416;SDS011;10869;52.238;10.716;2022-12-18T14:39:24;5.57;;;2.07;;
21416;SDS011;10869;52.238;10.716;2022-12-18T14:41:51;4.37;;;1.90;;
21416;SDS011;10869;52.238;10.716;2022-12-18T14:44:17;7.53;;;2.80;;
21416;SDS011;10869;52.238;10.716;2022-12-18T14:46:44;17.30;;;9.67;;
21416;SDS011;10869;52.238;10.716;2022-12-18T14:51:46;19.33;;;11.93;;
21416;SDS011;10869;52.238;10.716;2022-12-18T14:54:33;20.50;;;11.87;;
21416;SDS011;10869;52.238;10.716;2022-12-18T14:57:06;24.60;;;14.73;;
21416;SDS011;10869;52.238;10.716;2022-12-18T14:59:47;24.87;;;14.97;;
21416;SDS011;10869;52.238;10.716;2022-12-18T15:02:25;25.83;;;14.87;;
21416;SDS011;10869;52.238;10.716;2022-12-18T15:08:28;31.60;;;16.53;;
21416;SDS011;10869;52.238;10.716;2022-12-18T15:16:56;28.13;;;15.50;;
21416;SDS011;10869;52.238;10.716;2022-12-18T15:19:26;29.90;;;16.53;;
21416;SDS011;10869;52.238;10.716;2022-12-18T15:25:36;31.07;;;15.93;;
21416;SDS011;10869;52.238;10.716;2022-12-18T15:28:03;27.33;;;14.67;;
21416;SDS011;10869;52.238;10.716;2022-12-18T15:30:40;18.97;;;10.67;;
21416;SDS011;10869;52.238;10.716;2022-12-18T15:33:32;16.70;;;7.60;;
21416;SDS011;10869;52.238;10.716;2022-12-18T15:36:01;12.20;;;5.43;;
21416;SDS011;10869;52.238;10.716;2022-12-18T15:41:51;5.53;;;2.80;;
21416;SDS011;10869;52.238;10.716;2022-12-18T15:47:57;5.13;;;2.50;;
21416;SDS011;10869;52.238;10.716;2022-12-18T15:50:23;5.73;;;2.53;;
21416;SDS011;10869;52.238;10.716;2022-12-18T15:56:12;5.47;;;2.53;;
21416;SDS011;10869;52.238;10.716;2022-12-18T15:58:58;5.10;;;1.90;;
21416;SDS011;10869;52.238;10.716;2022-12-18T16:01:25;6.43;;;2.53;;
21416;SDS011;10869;52.238;10.716;2022-12-18T16:07:15;6.47;;;2.50;;
21416;SDS011;10869;52.238;10.716;2022-12-18T16:09:41;8.03;;;2.70;;
21416;SDS011;10869;52.238;10.716;2022-12-18T16:15:29;5.40;;;2.70;;
21416;SDS011;10869;52.238;10.716;2022-12-18T16:21:16;4.10;;;1.97;;
21416;SDS011;10869;52.238;10.716;2022-12-18T16:27:04;8.13;;;2.93;;
21416;SDS011;10869;52.238;10.716;2022-12-18T16:36:13;4.10;;;2.20;;
21416;SDS011;10869;52.238;10.716;2022-12-18T16:42:02;7.40;;;3.10;;
21416;SDS011;10869;52.238;10.716;2022-12-18T16:44:37;8.20;;;2.37;;
21416;SDS011;10869;52.238;10.716;2022-12-18T16:47:03;7.57;;;2.67;;
21416;SDS011;10869;52.238;10.716;2022-12-18T16:49:29;10.63;;;3.13;;
21416;SDS011;10869;52.238;10.716;2022-12-18T16:55:18;8.33;;;3.57;;
21416;SDS011;10869;52.238;10.716;2022-12-18T16:57:44;8.57;;;3.13;;
21416;SDS011;10869;52.238;10.716;2022-12-18T17:00:10;6.93;;;3.53;;
21416;SDS011;10869;52.238;10.716;2022-12-18T17:02:37;9.83;;;3.23;;
21416;SDS011;10869;52.238;10.716;2022-12-18T17:08:25;6.90;;;3.27;;
21416;SDS011;10869;52.238;10.716;2022-12-18T17:10:51;18.33;;;9.73;;
21416;SDS011;10869;52.238;10.716;2022-12-18T17:13:16;17.30;;;8.40;;
21416;SDS011;10869;52.238;10.716;2022-12-18T17:15:42;17.23;;;9.90;;
21416;SDS011;10869;52.238;10.716;2022-12-18T17:18:08;18.13;;;11.27;;
21416;SDS011;10869;52.238;10.716;2022-12-18T17:20:34;21.77;;;12.97;;
21416;SDS011;10869;52.238;10.716;2022-12-18T17:23:00;32.37;;;19.23;;
21416;SDS011;10869;52.238;10.716;2022-12-18T17:25:25;26.87;;;12.07;;
21416;SDS011;10869;52.238;10.716;2022-12-18T17:27:51;13.07;;;7.97;;
21416;SDS011;10869;52.238;10.716;2022-12-18T17:30:17;21.23;;;10.87;;
21416;SDS011;10869;52.238;10.716;2022-12-18T17:32:43;9.80;;;5.00;;
21416;SDS011;10869;52.238;10.716;2022-12-18T17:38:30;15.90;;;7.70;;
21416;SDS011;10869;52.238;10.716;2022-12-18T17:41:03;12.83;;;6.43;;
21416;SDS011;10869;52.238;10.716;2022-12-18T17:43:30;10.50;;;4.30;;
21416;SDS011;10869;52.238;10.716;2022-12-18T17:46:02;8.07;;;3.57;;
21416;SDS011;10869;52.238;10.716;2022-12-18T17:48:30;7.50;;;4.13;;
21416;SDS011;10869;52.238;10.716;2022-12-18T17:51:04;11.33;;;4.40;;
21416;SDS011;10869;52.238;10.716;2022-12-18T17:53:33;9.57;;;4.10;;
21416;SDS011;10869;52.238;10.716;2022-12-18T17:55:59;9.53;;;4.43;;
21416;SDS011;10869;52.238;10.716;2022-12-18T17:58:29;8.93;;;4.30;;
21416;SDS011;10869;52.238;10.716;2022-12-18T18:04:18;9.90;;;4.80;;
21416;SDS011;10869;52.238;10.716;2022-12-18T18:06:44;9.40;;;4.07;;
21416;SDS011;10869;52.238;10.716;2022-12-18T18:09:10;7.33;;;4.03;;
21416;SDS011;10869;52.238;10.716;2022-12-18T18:11:35;7.47;;;3.47;;
21416;SDS011;10869;52.238;10.716;2022-12-18T18:14:19;8.43;;;3.60;;
21416;SDS011;10869;52.238;10.716;2022-12-18T18:20:07;10.50;;;4.23;;
21416;SDS011;10869;52.238;10.716;2022-12-18T18:22:33;7.13;;;3.40;;
21416;SDS011;10869;52.238;10.716;2022-12-18T18:24:59;7.37;;;3.43;;
21416;SDS011;10869;52.238;10.716;2022-12-18T18:27:27;9.67;;;4.30;;
21416;SDS011;10869;52.238;10.716;2022-12-18T18:29:55;8.53;;;3.70;;
21416;SDS011;10869;52.238;10.716;2022-12-18T18:32:20;8.67;;;4.23;;
21416;SDS011;10869;52.238;10.716;2022-12-18T18:34:46;7.40;;;3.70;;
21416;SDS011;10869;52.238;10.716;2022-12-18T18:37:12;8.53;;;3.70;;
21416;SDS011;10869;52.238;10.716;2022-12-18T18:39:38;10.13;;;4.23;;
21416;SDS011;10869;52.238;10.716;2022-12-18T18:42:04;8.57;;;3.90;;
21416;SDS011;10869;52.238;10.716;2022-12-18T18:44:30;7.90;;;4.17;;
21416;SDS011;10869;52.238;10.716;2022-12-18T18:46:56;10.17;;;4.53;;
21416;SDS011;10869;52.238;10.716;2022-12-18T18:49:23;7.73;;;4.00;;
21416;SDS011;10869;52.238;10.716;2022-12-18T18:51:51;7.87;;;3.77;;
21416;SDS011;10869;52.238;10.716;2022-12-18T18:57:40;13.43;;;3.80;;
21416;SDS011;10869;52.238;10.716;2022-12-18T19:00:06;7.97;;;3.67;;
21416;SDS011;10869;52.238;10.716;2022-12-18T19:02:34;7.33;;;3.63;;
21416;SDS011;10869;52.238;10.716;2022-12-18T19:05:00;7.87;;;3.57;;
21416;SDS011;10869;52.238;10.716;2022-12-18T19:07:25;7.87;;;3.90;;
21416;SDS011;10869;52.238;10.716;2022-12-18T19:09:51;11.27;;;4.90;;
21416;SDS011;10869;52.238;10.716;2022-12-18T19:12:18;7.67;;;3.60;;
21416;SDS011;10869;52.238;10.716;2022-12-18T19:18:24;9.93;;;4.00;;
21416;SDS011;10869;52.238;10.716;2022-12-18T19:20:57;8.13;;;4.20;;
21416;SDS011;10869;52.238;10.716;2022-12-18T19:23:25;9.13;;;4.60;;
21416;SDS011;10869;52.238;10.716;2022-12-18T19:25:51;8.73;;;4.03;;
21416;SDS011;10869;52.238;10.716;2022-12-18T19:28:18;6.70;;;3.43;;
21416;SDS011;10869;52.238;10.716;2022-12-18T19:30:57;8.33;;;3.83;;
21416;SDS011;10869;52.238;10.716;2022-12-18T19:33:33;8.57;;;3.87;;
21416;SDS011;10869;52.238;10.716;2022-12-18T19:36:00;7.87;;;3.83;;
21416;SDS011;10869;52.238;10.716;2022-12-18T19:38:33;7.77;;;4.10;;
21416;SDS011;10869;52.238;10.716;2022-12-18T19:40:59;12.27;;;4.10;;
21416;SDS011;10869;52.238;10.716;2022-12-18T19:43:27;7.33;;;3.73;;
21416;SDS011;10869;52.238;10.716;2022-12-18T19:49:15;8.03;;;3.40;;
21416;SDS011;10869;52.238;10.716;2022-12-18T19:51:41;8.27;;;3.90;;
21416;SDS011;10869;52.238;10.716;2022-12-18T19:57:34;8.17;;;3.37;;
21416;SDS011;10869;52.238;10.716;2022-12-18T20:03:22;8.63;;;3.97;;
21416;SDS011;10869;52.238;10.716;2022-12-18T20:05:48;11.53;;;4.43;;
21416;SDS011;10869;52.238;10.716;2022-12-18T20:08:13;9.47;;;4.50;;
21416;SDS011;10869;52.238;10.716;2022-12-18T20:16:37;9.10;;;4.83;;
21416;SDS011;10869;52.238;10.716;2022-12-18T20:19:03;7.90;;;4.00;;
21416;SDS011;10869;52.238;10.716;2022-12-18T20:21:29;10.97;;;5.27;;
21416;SDS011;10869;52.238;10.716;2022-12-18T20:27:17;9.83;;;4.47;;
21416;SDS011;10869;52.238;10.716;2022-12-18T20:33:06;9.10;;;4.63;;
21416;SDS011;10869;52.238;10.716;2022-12-18T20:35:33;12.17;;;4.97;;
21416;SDS011;10869;52.238;10.716;2022-12-18T20:38:01;8.53;;;4.27;;
21416;SDS011;10869;52.238;10.716;2022-12-18T20:43:49;8.20;;;4.30;;
21416;SDS011;10869;52.238;10.716;2022-12-18T20:49:14;9.07;;;3.77;;
21416;SDS011;10869;52.238;10.716;2022-12-18T20:55:04;7.60;;;4.00;;
21416;SDS011;10869;52.238;10.716;2022-12-18T21:01:02;8.27;;;4.20;;
21416;SDS011;10869;52.238;10.716;2022-12-18T21:03:35;8.90;;;4.70;;
21416;SDS011;10869;52.238;10.716;2022-12-18T21:06:02;10.43;;;4.60;;
21416;SDS011;10869;52.238;10.716;2022-12-18T21:08:31;11.87;;;5.13;;
21416;SDS011;10869;52.238;10.716;2022-12-18T21:14:15;8.97;;;4.53;;
21416;SDS011;10869;52.238;10.716;2022-12-18T21:16:43;10.67;;;5.13;;
21416;SDS011;10869;52.238;10.716;2022-12-18T21:19:13;9.40;;;5.17;;
21416;SDS011;10869;52.238;10.716;2022-12-18T21:21:40;10.87;;;5.57;;
21416;SDS011;10869;52.238;10.716;2022-12-18T21:24:07;10.53;;;5.80;;
21416;SDS011;10869;52.238;10.716;2022-12-18T21:26:36;9.57;;;5.30;;
21416;SDS011;10869;52.238;10.716;2022-12-18T21:29:04;9.97;;;5.23;;
21416;SDS011;10869;52.238;10.716;2022-12-18T21:31:33;12.03;;;5.03;;
21416;SDS011;10869;52.238;10.716;2022-12-18T21:34:00;10.70;;;5.37;;
21416;SDS011;10869;52.238;10.716;2022-12-18T21:36:27;10.13;;;6.00;;
21416;SDS011;10869;52.238;10.716;2022-12-18T21:38:54;12.33;;;6.00;;
21416;SDS011;10869;52.238;10.716;2022-12-18T21:45:05;12.73;;;6.70;;
21416;SDS011;10869;52.238;10.716;2022-12-18T21:47:31;12.83;;;6.40;;
21416;SDS011;10869;52.238;10.716;2022-12-18T21:53:18;12.10;;;5.47;;
21416;SDS011;10869;52.238;10.716;2022-12-18T21:55:44;10.27;;;5.97;;
21416;SDS011;10869;52.238;10.716;2022-12-18T21:58:10;10.43;;;5.60;;
21416;SDS011;10869;52.238;10.716;2022-12-18T22:00:35;14.13;;;5.70;;
21416;SDS011;10869;52.238;10.716;2022-12-18T22:03:01;11.43;;;5.47;;
21416;SDS011;10869;52.238;10.716;2022-12-18T22:05:27;8.73;;;4.57;;
21416;SDS011;10869;52.238;10.716;2022-12-18T22:07:53;10.57;;;5.37;;
21416;SDS011;10869;52.238;10.716;2022-12-18T22:10:18;10.77;;;4.87;;
21416;SDS011;10869;52.238;10.716;2022-12-18T22:12:44;10.23;;;5.03;;
21416;SDS011;10869;52.238;10.716;2022-12-18T22:15:10;10.07;;;5.77;;
21416;SDS011;10869;52.238;10.716;2022-12-18T22:17:37;12.03;;;6.27;;
21416;SDS011;10869;52.238;10.716;2022-12-18T22:20:03;10.73;;;5.60;;
21416;SDS011;10869;52.238;10.716;2022-12-18T22:22:29;10.47;;;5.27;;
21416;SDS011;10869;52.238;10.716;2022-12-18T22:28:16;10.13;;;4.93;;
21416;SDS011;10869;52.238;10.716;2022-12-18T22:31:00;11.07;;;5.87;;
21416;SDS011;10869;52.238;10.716;2022-12-18T22:33:26;11.87;;;5.80;;
21416;SDS011;10869;52.238;10.716;2022-12-18T22:35:52;12.63;;;5.53;;
21416;SDS011;10869;52.238;10.716;2022-12-18T22:38:18;11.43;;;5.70;;
21416;SDS011;10869;52.238;10.716;2022-12-18T22:40:43;13.63;;;5.27;;
21416;SDS011;10869;52.238;10.716;2022-12-18T22:43:09;11.10;;;6.00;;
21416;SDS011;10869;52.238;10.716;2022-12-18T22:49:08;12.47;;;6.10;;
21416;SDS011;10869;52.238;10.716;2022-12-18T22:51:48;12.50;;;5.87;;
21416;SDS011;10869;52.238;10.716;2022-12-18T22:54:14;13.77;;;4.93;;
21416;SDS011;10869;52.238;10.716;2022-12-18T22:56:41;12.07;;;5.83;;
21416;SDS011;10869;52.238;10.716;2022-12-18T22:59:14;9.77;;;5.23;;
21416;SDS011;10869;52.238;10.716;2022-12-18T23:01:42;17.67;;;5.90;;
21416;SDS011;10869;52.238;10.716;2022-12-18T23:04:09;9.17;;;4.73;;
21416;SDS011;10869;52.238;10.716;2022-12-18T23:06:34;9.20;;;5.00;;
21416;SDS011;10869;52.238;10.716;2022-12-18T23:09:00;10.37;;;4.87;;
21416;SDS011;10869;52.238;10.716;2022-12-18T23:11:26;8.83;;;4.77;;
21416;SDS011;10869;52.238;10.716;2022-12-18T23:13:52;11.53;;;5.23;;
21416;SDS011;10869;52.238;10.716;2022-12-18T23:16:18;8.73;;;4.73;;
21416;SDS011;10869;52.238;10.716;2022-12-18T23:18:45;9.97;;;4.60;;
21416;SDS011;10869;52.238;10.716;2022-12-18T23:23:39;10.03;;;4.80;;
21416;SDS011;10869;52.238;10.716;2022-12-18T23:26:06;8.20;;;4.33;;
21416;SDS011;10869;52.238;10.716;2022-12-18T23:28:36;10.70;;;4.37;;
21416;SDS011;10869;52.238;10.716;2022-12-18T23:33:30;10.10;;;4.53;;
21416;SDS011;10869;52.238;10.716;2022-12-18T23:35:56;9.77;;;5.03;;
21416;SDS011;10869;52.238;10.716;2022-12-18T23:38:24;9.83;;;4.73;;
21416;SDS011;10869;52.238;10.716;2022-12-18T23:40:53;9.53;;;5.27;;
21416;SDS011;10869;52.238;10.716;2022-12-18T23:43:19;9.60;;;5.10;;
21416;SDS011;10869;52.238;10.716;2022-12-18T23:45:45;9.60;;;4.80;;
21416;SDS011;10869;52.238;10.716;2022-12-18T23:48:11;8.97;;;4.50;;
21416;SDS011;10869;52.238;10.716;2022-12-18T23:50:37;7.60;;;4.10;;
21416;SDS011;10869;52.238;10.716;2022-12-18T23:53:03;9.90;;;4.13;;